sensor_id;sensor_type;location;lat;lon;timestamp;pressure;altitude;pressure_sealevel;temperature;humidity
13767;BME280;47980;48.794;9.176;2023-09-19T00:02:22;97840.75;;;18.71;91.52
13767;BME280;47980;48.794;9.176;2023-09-19T00:04:53;97844.56;;;18.63;91.59
13767;BME280;47980;48.794;9.176;2023-09-19T00:07:25;97844.97;;;18.72;92.61
13767;BME280;47980;48.794;9.176;2023-09-19T00:09:56;97853.41;;;18.78;92.62
13767;BME280;47980;48.794;9.176;2023-09-19T00:12:29;97869.91;;;18.73;92.36
13767;BME280;47980;48.794;9.176;2023-09-19T00:15:01;97877.22;;;18.76;92.41
13767;BME280;47980;48.794;9.176;2023-09-19T00:17:35;97877.97;;;18.73;91.40
13767;BME280;47980;48.794;9.176;2023-09-19T00:20:08;97871.47;;;18.74;90.68
13767;BME280;47980;48.794;9.176;2023-09-19T00:22:43;97879.50;;;18.60;90.74
13767;BME280;47980;48.794;9.176;2023-09-19T00:25:14;97887.16;;;18.68;91.11
13767;BME280;47980;48.794;9.176;2023-09-19T00:27:47;97874.88;;;18.67;92.16
13767;BME280;47980;48.794;9.176;2023-09-19T00:30:21;97882.53;;;18.58;93.10
13767;BME280;47980;48.794;9.176;2023-09-19T00:32:54;97883.69;;;18.53;93.72
13767;BME280;47980;48.794;9.176;2023-09-19T00:35:26;97883.72;;;18.68;92.39
13767;BME280;47980;48.794;9.176;2023-09-19T00:37:58;97881.78;;;18.58;94.33
13767;BME280;47980;48.794;9.176;2023-09-19T00:40:29;97887.56;;;18.60;93.42
13767;BME280;47980;48.794;9.176;2023-09-19T00:43:04;97887.16;;;18.61;94.06
13767;BME280;47980;48.794;9.176;2023-09-19T00:45:36;97886.38;;;18.57;95.31
13767;BME280;47980;48.794;9.176;2023-09-19T00:48:08;97898.66;;;18.62;94.90
13767;BME280;47980;48.794;9.176;2023-09-19T00:50:41;97894.06;;;18.59;93.50
13767;BME280;47980;48.794;9.176;2023-09-19T00:53:17;97896.38;;;18.53;94.80
13767;BME280;47980;48.794;9.176;2023-09-19T00:55:50;97899.41;;;18.51;95.50
13767;BME280;47980;48.794;9.176;2023-09-19T00:58:23;97904.41;;;18.42;94.52
13767;BME280;47980;48.794;9.176;2023-09-19T01:00:55;97909.38;;;18.44;95.88
13767;BME280;47980;48.794;9.176;2023-09-19T01:03:27;97905.19;;;18.46;95.94
13767;BME280;47980;48.794;9.176;2023-09-19T01:05:59;97909.78;;;18.42;95.55
13767;BME280;47980;48.794;9.176;2023-09-19T01:08:31;97912.06;;;18.40;94.96
13767;BME280;47980;48.794;9.176;2023-09-19T01:11:10;97910.16;;;18.41;95.01
13767;BME280;47980;48.794;9.176;2023-09-19T01:13:56;97914.75;;;18.40;95.56
13767;BME280;47980;48.794;9.176;2023-09-19T01:16:33;97909.78;;;18.39;95.09
13767;BME280;47980;48.794;9.176;2023-09-19T01:19:26;97908.25;;;18.45;94.31
13767;BME280;47980;48.794;9.176;2023-09-19T01:22:10;97910.53;;;18.39;95.08
13767;BME280;47980;48.794;9.176;2023-09-19T01:25:03;97915.16;;;18.42;93.71
13767;BME280;47980;48.794;9.176;2023-09-19T01:27:57;97917.06;;;18.38;94.80
13767;BME280;47980;48.794;9.176;2023-09-19T01:30:43;97917.84;;;18.39;95.65
13767;BME280;47980;48.794;9.176;2023-09-19T01:33:15;97916.69;;;18.43;95.50
13767;BME280;47980;48.794;9.176;2023-09-19T01:35:47;97922.81;;;18.40;93.73
13767;BME280;47980;48.794;9.176;2023-09-19T01:38:19;97916.31;;;18.41;93.36
13767;BME280;47980;48.794;9.176;2023-09-19T01:40:57;97923.22;;;18.46;91.81
13767;BME280;47980;48.794;9.176;2023-09-19T01:43:41;97921.69;;;18.45;92.15
13767;BME280;47980;48.794;9.176;2023-09-19T01:46:18;97919.00;;;18.45;91.98
13767;BME280;47980;48.794;9.176;2023-09-19T01:48:58;97928.59;;;18.46;92.48
13767;BME280;47980;48.794;9.176;2023-09-19T01:51:43;97919.78;;;18.45;91.37
13767;BME280;47980;48.794;9.176;2023-09-19T01:54:22;97920.53;;;18.49;90.32
13767;BME280;47980;48.794;9.176;2023-09-19T01:57:01;97933.97;;;18.49;91.29
13767;BME280;47980;48.794;9.176;2023-09-19T01:59:39;97935.50;;;18.43;90.85
13767;BME280;47980;48.794;9.176;2023-09-19T02:02:14;97938.16;;;18.33;91.70
13767;BME280;47980;48.794;9.176;2023-09-19T02:04:48;97936.59;;;18.28;91.74
13767;BME280;47980;48.794;9.176;2023-09-19T02:07:20;97939.31;;;18.32;90.98
13767;BME280;47980;48.794;9.176;2023-09-19T02:09:52;97942.75;;;18.36;89.65
13767;BME280;47980;48.794;9.176;2023-09-19T02:12:24;97947.38;;;18.32;90.14
13767;BME280;47980;48.794;9.176;2023-09-19T02:14:56;97947.34;;;18.28;90.77
13767;BME280;47980;48.794;9.176;2023-09-19T02:17:30;97947.75;;;18.26;91.28
13767;BME280;47980;48.794;9.176;2023-09-19T02:20:02;97956.53;;;18.20;91.40
13767;BME280;47980;48.794;9.176;2023-09-19T02:22:41;97956.53;;;18.20;92.71
13767;BME280;47980;48.794;9.176;2023-09-19T02:25:14;97961.13;;;18.16;92.49
13767;BME280;47980;48.794;9.176;2023-09-19T02:27:45;97969.19;;;18.16;92.23
13767;BME280;47980;48.794;9.176;2023-09-19T02:30:17;97964.16;;;18.11;93.00
13767;BME280;47980;48.794;9.176;2023-09-19T02:32:52;97964.88;;;18.00;92.83
13767;BME280;47980;48.794;9.176;2023-09-19T02:35:23;97964.84;;;17.93;93.68
13767;BME280;47980;48.794;9.176;2023-09-19T02:37:56;97963.69;;;17.91;94.51
13767;BME280;47980;48.794;9.176;2023-09-19T02:40:28;97967.53;;;17.97;94.42
13767;BME280;47980;48.794;9.176;2023-09-19T02:43:00;97967.50;;;17.90;94.49
13767;BME280;47980;48.794;9.176;2023-09-19T02:45:32;97967.84;;;17.77;95.21
13767;BME280;47980;48.794;9.176;2023-09-19T02:48:05;97974.38;;;17.76;94.81
13767;BME280;47980;48.794;9.176;2023-09-19T02:50:38;97978.56;;;17.77;94.61
13767;BME280;47980;48.794;9.176;2023-09-19T02:53:10;97983.63;;;17.90;94.19
13767;BME280;47980;48.794;9.176;2023-09-19T02:55:43;97991.59;;;17.75;94.63
13767;BME280;47980;48.794;9.176;2023-09-19T02:58:14;97985.16;;;17.87;94.85
13767;BME280;47980;48.794;9.176;2023-09-19T03:00:46;97987.88;;;17.94;94.62
13767;BME280;47980;48.794;9.176;2023-09-19T03:03:23;97983.63;;;17.90;94.93
13767;BME280;47980;48.794;9.176;2023-09-19T03:05:54;97987.91;;;17.98;94.84
13767;BME280;47980;48.794;9.176;2023-09-19T03:08:26;97983.66;;;17.97;95.37
13767;BME280;47980;48.794;9.176;2023-09-19T03:10:58;97987.50;;;17.99;95.25
13767;BME280;47980;48.794;9.176;2023-09-19T03:13:31;97983.69;;;18.04;93.70
13767;BME280;47980;48.794;9.176;2023-09-19T03:16:03;97987.94;;;18.09;93.79
13767;BME280;47980;48.794;9.176;2023-09-19T03:18:37;97988.72;;;18.09;92.96
13767;BME280;47980;48.794;9.176;2023-09-19T03:21:10;97990.63;;;18.09;93.23
13767;BME280;47980;48.794;9.176;2023-09-19T03:23:41;97987.94;;;18.09;92.95
13767;BME280;47980;48.794;9.176;2023-09-19T03:26:15;97992.91;;;18.07;92.83
13767;BME280;47980;48.794;9.176;2023-09-19T03:28:47;97991.41;;;18.09;92.46
13767;BME280;47980;48.794;9.176;2023-09-19T03:31:18;97990.66;;;18.16;92.85
13767;BME280;47980;48.794;9.176;2023-09-19T03:33:52;97992.94;;;18.10;92.61
13767;BME280;47980;48.794;9.176;2023-09-19T03:36:23;97996.78;;;18.09;93.39
13767;BME280;47980;48.794;9.176;2023-09-19T03:38:55;97987.97;;;18.16;92.74
13767;BME280;47980;48.794;9.176;2023-09-19T03:41:26;97988.34;;;18.14;93.09
13767;BME280;47980;48.794;9.176;2023-09-19T03:43:58;97986.38;;;18.08;93.51
13767;BME280;47980;48.794;9.176;2023-09-19T03:46:30;97995.28;;;18.22;92.46
13767;BME280;47980;48.794;9.176;2023-09-19T03:49:03;97988.03;;;18.26;93.26
13767;BME280;47980;48.794;9.176;2023-09-19T03:51:35;97989.09;;;18.11;93.16
13767;BME280;47980;48.794;9.176;2023-09-19T03:54:07;97989.88;;;18.15;93.82
13767;BME280;47980;48.794;9.176;2023-09-19T03:56:39;97990.63;;;18.09;94.49
13767;BME280;47980;48.794;9.176;2023-09-19T03:59:11;97990.97;;;18.03;93.74
13767;BME280;47980;48.794;9.176;2023-09-19T04:01:42;97994.50;;;18.18;92.27
13767;BME280;47980;48.794;9.176;2023-09-19T04:04:15;97996.41;;;18.18;92.50
13767;BME280;47980;48.794;9.176;2023-09-19T04:06:49;97998.00;;;18.33;92.21
13767;BME280;47980;48.794;9.176;2023-09-19T04:09:20;98007.22;;;18.32;91.04
13767;BME280;47980;48.794;9.176;2023-09-19T04:11:52;97991.09;;;18.32;89.82
13767;BME280;47980;48.794;9.176;2023-09-19T04:14:23;97994.94;;;18.27;91.13
13767;BME280;47980;48.794;9.176;2023-09-19T04:16:55;98002.50;;;18.11;91.94
13767;BME280;47980;48.794;9.176;2023-09-19T04:19:27;97997.00;;;17.86;94.38
13767;BME280;47980;48.794;9.176;2023-09-19T04:21:59;98002.81;;;17.95;93.40
13767;BME280;47980;48.794;9.176;2023-09-19T04:24:30;98007.44;;;17.95;93.84
13767;BME280;47980;48.794;9.176;2023-09-19T04:27:03;98013.63;;;18.10;93.25
13767;BME280;47980;48.794;9.176;2023-09-19T04:29:35;98002.53;;;18.18;92.87
13767;BME280;47980;48.794;9.176;2023-09-19T04:32:08;98014.44;;;18.17;91.70
13767;BME280;47980;48.794;9.176;2023-09-19T04:34:41;98004.84;;;18.16;92.81
13767;BME280;47980;48.794;9.176;2023-09-19T04:37:13;98012.91;;;18.13;94.01
13767;BME280;47980;48.794;9.176;2023-09-19T04:39:45;98007.88;;;18.08;93.26
13767;BME280;47980;48.794;9.176;2023-09-19T04:42:17;98011.31;;;18.08;93.51
13767;BME280;47980;48.794;9.176;2023-09-19T04:44:49;98013.69;;;18.17;93.79
13767;BME280;47980;48.794;9.176;2023-09-19T04:47:23;98016.75;;;18.19;94.78
13767;BME280;47980;48.794;9.176;2023-09-19T04:49:55;98021.72;;;18.13;94.44
13767;BME280;47980;48.794;9.176;2023-09-19T04:52:30;98021.31;;;18.11;94.58
13767;BME280;47980;48.794;9.176;2023-09-19T04:55:01;98025.88;;;18.03;95.83
13767;BME280;47980;48.794;9.176;2023-09-19T04:57:33;98038.97;;;18.09;97.90
13767;BME280;47980;48.794;9.176;2023-09-19T05:00:05;98040.50;;;18.10;100.00
13767;BME280;47980;48.794;9.176;2023-09-19T05:02:42;98046.59;;;18.07;100.00
13767;BME280;47980;48.794;9.176;2023-09-19T05:05:16;98051.22;;;18.10;100.00
13767;BME280;47980;48.794;9.176;2023-09-19T05:07:49;98048.06;;;17.97;100.00
13767;BME280;47980;48.794;9.176;2023-09-19T05:10:21;98049.59;;;17.91;100.00
13767;BME280;47980;48.794;9.176;2023-09-19T05:12:53;98053.09;;;17.98;100.00
13767;BME280;47980;48.794;9.176;2023-09-19T05:15:24;98049.91;;;17.82;100.00
13767;BME280;47980;48.794;9.176;2023-09-19T05:17:57;98048.72;;;17.76;100.00
13767;BME280;47980;48.794;9.176;2023-09-19T05:20:32;98051.81;;;17.82;100.00
13767;BME280;47980;48.794;9.176;2023-09-19T05:23:07;98057.53;;;17.76;100.00
13767;BME280;47980;48.794;9.176;2023-09-19T05:25:42;98064.47;;;17.81;100.00
13767;BME280;47980;48.794;9.176;2023-09-19T05:28:13;98067.66;;;17.49;100.00
13767;BME280;47980;48.794;9.176;2023-09-19T05:30:46;98066.19;;;17.59;100.00
13767;BME280;47980;48.794;9.176;2023-09-19T05:33:18;98071.19;;;17.61;100.00
13767;BME280;47980;48.794;9.176;2023-09-19T05:35:50;98088.31;;;17.45;100.00
13767;BME280;47980;48.794;9.176;2023-09-19T05:38:22;98089.22;;;17.64;100.00
13767;BME280;47980;48.794;9.176;2023-09-19T05:40:54;98101.16;;;17.70;100.00
13767;BME280;47980;48.794;9.176;2023-09-19T05:43:26;98098.84;;;17.68;100.00
13767;BME280;47980;48.794;9.176;2023-09-19T05:45:59;98096.53;;;17.67;100.00
13767;BME280;47980;48.794;9.176;2023-09-19T05:48:31;98106.03;;;17.57;100.00
13767;BME280;47980;48.794;9.176;2023-09-19T05:51:04;98110.31;;;17.62;100.00
13767;BME280;47980;48.794;9.176;2023-09-19T05:53:35;98110.53;;;17.46;100.00
13767;BME280;47980;48.794;9.176;2023-09-19T05:56:07;98123.44;;;17.33;100.00
13767;BME280;47980;48.794;9.176;2023-09-19T05:58:41;98123.69;;;17.21;100.00
13767;BME280;47980;48.794;9.176;2023-09-19T06:01:14;98118.72;;;17.19;100.00
13767;BME280;47980;48.794;9.176;2023-09-19T06:03:46;98128.72;;;17.22;100.00
13767;BME280;47980;48.794;9.176;2023-09-19T06:06:19;98129.19;;;17.35;100.00
13767;BME280;47980;48.794;9.176;2023-09-19T06:08:50;98124.56;;;17.28;100.00
13767;BME280;47980;48.794;9.176;2023-09-19T06:11:22;98137.75;;;17.48;100.00
13767;BME280;47980;48.794;9.176;2023-09-19T06:13:56;98142.25;;;17.37;100.00
13767;BME280;47980;48.794;9.176;2023-09-19T06:16:28;98139.09;;;17.27;100.00
13767;BME280;47980;48.794;9.176;2023-09-19T06:19:00;98139.81;;;17.24;100.00
13767;BME280;47980;48.794;9.176;2023-09-19T06:21:32;98144.06;;;17.25;100.00
13767;BME280;47980;48.794;9.176;2023-09-19T06:24:05;98141.25;;;17.15;100.00
13767;BME280;47980;48.794;9.176;2023-09-19T06:26:36;98144.06;;;17.25;100.00
13767;BME280;47980;48.794;9.176;2023-09-19T06:29:08;98144.09;;;17.29;100.00
13767;BME280;47980;48.794;9.176;2023-09-19T06:31:40;98145.38;;;17.42;100.00
13767;BME280;47980;48.794;9.176;2023-09-19T06:34:12;98141.63;;;17.50;100.00
13767;BME280;47980;48.794;9.176;2023-09-19T06:36:45;98143.09;;;17.85;100.00
13767;BME280;47980;48.794;9.176;2023-09-19T06:39:17;98151.63;;;17.94;100.00
13767;BME280;47980;48.794;9.176;2023-09-19T06:41:49;98146.31;;;18.01;100.00
13767;BME280;47980;48.794;9.176;2023-09-19T06:44:20;98154.41;;;18.09;100.00
13767;BME280;47980;48.794;9.176;2023-09-19T06:46:52;98157.81;;;18.02;100.00
13767;BME280;47980;48.794;9.176;2023-09-19T06:49:23;98160.50;;;18.02;100.00
13767;BME280;47980;48.794;9.176;2023-09-19T06:51:56;98155.19;;;18.09;98.87
13767;BME280;47980;48.794;9.176;2023-09-19T06:54:28;98156.44;;;18.29;97.09
13767;BME280;47980;48.794;9.176;2023-09-19T06:57:01;98156.91;;;18.39;97.86
13767;BME280;47980;48.794;9.176;2023-09-19T06:59:36;98164.50;;;18.29;95.01
13767;BME280;47980;48.794;9.176;2023-09-19T07:02:08;98162.69;;;18.48;98.13
13767;BME280;47980;48.794;9.176;2023-09-19T07:04:40;98165.28;;;18.96;96.54
13767;BME280;47980;48.794;9.176;2023-09-19T07:07:13;98172.16;;;18.90;96.84
13767;BME280;47980;48.794;9.176;2023-09-19T07:09:45;98175.19;;;18.78;95.10
13767;BME280;47980;48.794;9.176;2023-09-19T07:12:19;98181.00;;;18.90;96.58
13767;BME280;47980;48.794;9.176;2023-09-19T07:14:50;98187.13;;;18.91;98.38
13767;BME280;47980;48.794;9.176;2023-09-19T07:17:22;98186.03;;;18.95;92.54
13767;BME280;47980;48.794;9.176;2023-09-19T07:19:54;98191.81;;;19.08;93.67
13767;BME280;47980;48.794;9.176;2023-09-19T07:22:27;98202.22;;;19.17;93.15
13767;BME280;47980;48.794;9.176;2023-09-19T07:24:58;98203.34;;;19.05;92.12
13767;BME280;47980;48.794;9.176;2023-09-19T07:27:30;98197.50;;;18.89;96.21
13767;BME280;47980;48.794;9.176;2023-09-19T07:30:01;98197.00;;;18.69;92.38
13767;BME280;47980;48.794;9.176;2023-09-19T07:32:33;98203.63;;;18.82;92.71
13767;BME280;47980;48.794;9.176;2023-09-19T07:35:07;98200.31;;;19.17;89.92
13767;BME280;47980;48.794;9.176;2023-09-19T07:37:40;98201.91;;;19.29;92.20
13767;BME280;47980;48.794;9.176;2023-09-19T07:40:12;98208.03;;;19.22;87.71
13767;BME280;47980;48.794;9.176;2023-09-19T07:42:45;98214.97;;;19.38;87.24
13767;BME280;47980;48.794;9.176;2023-09-19T07:45:17;98215.41;;;19.47;87.70
13767;BME280;47980;48.794;9.176;2023-09-19T07:47:49;98215.72;;;19.35;87.84
13767;BME280;47980;48.794;9.176;2023-09-19T07:50:21;98218.88;;;19.55;89.59
13767;BME280;47980;48.794;9.176;2023-09-19T07:52:54;98214.69;;;19.61;87.16
13767;BME280;47980;48.794;9.176;2023-09-19T07:55:26;98224.34;;;19.76;89.51
13767;BME280;47980;48.794;9.176;2023-09-19T07:57:59;98214.72;;;19.79;89.09
13767;BME280;47980;48.794;9.176;2023-09-19T08:00:31;98219.31;;;19.78;86.42
13767;BME280;47980;48.794;9.176;2023-09-19T08:03:05;98227.03;;;19.73;87.69
13767;BME280;47980;48.794;9.176;2023-09-19T08:05:37;98231.66;;;19.83;88.68
13767;BME280;47980;48.794;9.176;2023-09-19T08:08:12;98238.91;;;19.61;89.16
13767;BME280;47980;48.794;9.176;2023-09-19T08:10:44;98246.25;;;19.75;85.90
13767;BME280;47980;48.794;9.176;2023-09-19T08:13:19;98234.34;;;20.11;81.71
13767;BME280;47980;48.794;9.176;2023-09-19T08:15:51;98231.66;;;20.43;82.26
13767;BME280;47980;48.794;9.176;2023-09-19T08:18:23;98237.44;;;20.28;82.66
13767;BME280;47980;48.794;9.176;2023-09-19T08:20:54;98241.31;;;20.59;81.61
13767;BME280;47980;48.794;9.176;2023-09-19T08:23:30;98236.31;;;20.50;81.86
13767;BME280;47980;48.794;9.176;2023-09-19T08:26:02;98235.94;;;20.59;82.30
13767;BME280;47980;48.794;9.176;2023-09-19T08:28:36;98243.22;;;20.55;79.54
13767;BME280;47980;48.794;9.176;2023-09-19T08:31:10;98241.66;;;20.39;78.56
13767;BME280;47980;48.794;9.176;2023-09-19T08:33:42;98236.69;;;20.63;77.62
13767;BME280;47980;48.794;9.176;2023-09-19T08:36:15;98233.56;;;20.82;78.39
13767;BME280;47980;48.794;9.176;2023-09-19T08:38:48;98235.50;;;20.75;78.56
13767;BME280;47980;48.794;9.176;2023-09-19T08:41:20;98232.34;;;20.98;79.21
13767;BME280;47980;48.794;9.176;2023-09-19T08:43:51;98236.94;;;21.11;75.31
13767;BME280;47980;48.794;9.176;2023-09-19T08:46:25;98239.72;;;20.79;73.49
13767;BME280;47980;48.794;9.176;2023-09-19T08:49:03;98253.63;;;20.71;76.48
13767;BME280;47980;48.794;9.176;2023-09-19T08:51:41;98245.88;;;20.73;73.68
13767;BME280;47980;48.794;9.176;2023-09-19T08:54:22;98249.31;;;20.87;76.76
13767;BME280;47980;48.794;9.176;2023-09-19T08:57:00;98249.69;;;21.04;71.09
13767;BME280;47980;48.794;9.176;2023-09-19T08:59:38;98250.91;;;20.78;70.21
13767;BME280;47980;48.794;9.176;2023-09-19T09:02:12;98242.84;;;20.46;71.03
13767;BME280;47980;48.794;9.176;2023-09-19T09:04:44;98247.03;;;20.79;68.24
13767;BME280;47980;48.794;9.176;2023-09-19T09:07:16;98244.28;;;21.07;68.67
13767;BME280;47980;48.794;9.176;2023-09-19T09:09:50;98251.56;;;21.21;65.33
13767;BME280;47980;48.794;9.176;2023-09-19T09:12:22;98247.94;;;21.56;65.73
13767;BME280;47980;48.794;9.176;2023-09-19T09:14:56;98250.75;;;22.01;65.02
13767;BME280;47980;48.794;9.176;2023-09-19T09:17:28;98255.09;;;21.84;64.51
13767;BME280;47980;48.794;9.176;2023-09-19T09:19:59;98251.41;;;22.20;64.90
13767;BME280;47980;48.794;9.176;2023-09-19T09:22:31;98257.28;;;22.56;63.48
13767;BME280;47980;48.794;9.176;2023-09-19T09:25:05;98263.69;;;22.31;59.92
13767;BME280;47980;48.794;9.176;2023-09-19T09:27:36;98258.97;;;22.39;59.09
13767;BME280;47980;48.794;9.176;2023-09-19T09:30:32;98263.31;;;22.26;59.63
13767;BME280;47980;48.794;9.176;2023-09-19T09:33:10;98265.53;;;22.42;58.14
13767;BME280;47980;48.794;9.176;2023-09-19T09:35:49;98260.44;;;22.89;57.17
13767;BME280;47980;48.794;9.176;2023-09-19T09:38:24;98262.75;;;22.90;55.41
13767;BME280;47980;48.794;9.176;2023-09-19T09:41:03;98266.50;;;22.62;57.10
13767;BME280;47980;48.794;9.176;2023-09-19T09:43:37;98251.50;;;22.54;56.83
13767;BME280;47980;48.794;9.176;2023-09-19T09:46:12;98259.06;;;22.73;54.84
13767;BME280;47980;48.794;9.176;2023-09-19T09:49:03;98254.31;;;23.53;55.28
13767;BME280;47980;48.794;9.176;2023-09-19T09:51:50;98255.25;;;23.39;54.17
13767;BME280;47980;48.794;9.176;2023-09-19T09:54:29;98249.66;;;23.53;52.05
13767;BME280;47980;48.794;9.176;2023-09-19T09:57:09;98252.91;;;23.41;52.74
13767;BME280;47980;48.794;9.176;2023-09-19T09:59:50;98248.84;;;23.26;53.86
13767;BME280;47980;48.794;9.176;2023-09-19T10:02:26;98254.66;;;23.55;53.48
13767;BME280;47980;48.794;9.176;2023-09-19T10:04:59;98247.75;;;23.81;51.74
13767;BME280;47980;48.794;9.176;2023-09-19T10:07:45;98251.44;;;23.02;51.65
13767;BME280;47980;48.794;9.176;2023-09-19T10:10:30;98265.88;;;22.89;52.44
13767;BME280;47980;48.794;9.176;2023-09-19T10:13:11;98245.47;;;22.39;53.83
13767;BME280;47980;48.794;9.176;2023-09-19T10:15:48;98249.97;;;22.91;52.35
13767;BME280;47980;48.794;9.176;2023-09-19T10:18:22;98254.47;;;23.08;50.77
13767;BME280;47980;48.794;9.176;2023-09-19T10:20:54;98251.09;;;22.07;53.48
13767;BME280;47980;48.794;9.176;2023-09-19T10:23:27;98251.28;;;21.78;54.03
13767;BME280;47980;48.794;9.176;2023-09-19T10:26:01;98240.88;;;21.77;53.98
13767;BME280;47980;48.794;9.176;2023-09-19T10:28:35;98243.34;;;22.16;54.98
13767;BME280;47980;48.794;9.176;2023-09-19T10:31:09;98234.97;;;21.93;53.64
13767;BME280;47980;48.794;9.176;2023-09-19T10:33:44;98240.69;;;22.54;53.13
13767;BME280;47980;48.794;9.176;2023-09-19T10:36:19;98229.22;;;23.18;51.67
13767;BME280;47980;48.794;9.176;2023-09-19T10:38:52;98246.97;;;22.85;51.50
13767;BME280;47980;48.794;9.176;2023-09-19T10:41:27;98229.53;;;22.52;53.09
13767;BME280;47980;48.794;9.176;2023-09-19T10:44:03;98240.09;;;22.35;53.78
13767;BME280;47980;48.794;9.176;2023-09-19T10:46:36;98247.75;;;21.88;53.42
13767;BME280;47980;48.794;9.176;2023-09-19T10:49:10;98242.47;;;22.30;53.79
13767;BME280;47980;48.794;9.176;2023-09-19T10:51:44;98241.41;;;22.58;54.02
13767;BME280;47980;48.794;9.176;2023-09-19T10:54:18;98246.56;;;22.45;52.36
13767;BME280;47980;48.794;9.176;2023-09-19T10:56:56;98252.63;;;22.60;52.68
13767;BME280;47980;48.794;9.176;2023-09-19T10:59:30;98249.38;;;22.76;51.80
13767;BME280;47980;48.794;9.176;2023-09-19T11:02:16;98251.69;;;22.77;51.13
13767;BME280;47980;48.794;9.176;2023-09-19T11:04:48;98240.03;;;22.43;51.27
13767;BME280;47980;48.794;9.176;2023-09-19T11:07:21;98239.19;;;22.49;52.04
13767;BME280;47980;48.794;9.176;2023-09-19T11:09:56;98240.66;;;22.57;52.03
13767;BME280;47980;48.794;9.176;2023-09-19T11:12:50;98239.78;;;22.26;52.91
13767;BME280;47980;48.794;9.176;2023-09-19T11:18:57;98233.84;;;22.80;51.51
13767;BME280;47980;48.794;9.176;2023-09-19T11:21:53;98242.28;;;23.23;49.63
13767;BME280;47980;48.794;9.176;2023-09-19T11:24:29;98220.47;;;23.07;51.33
13767;BME280;47980;48.794;9.176;2023-09-19T11:27:15;98226.81;;;23.24;50.44
13767;BME280;47980;48.794;9.176;2023-09-19T11:29:48;98222.34;;;23.41;48.71
13767;BME280;47980;48.794;9.176;2023-09-19T11:36:00;98210.25;;;23.18;48.66
13767;BME280;47980;48.794;9.176;2023-09-19T11:38:59;98218.88;;;23.10;49.23
13767;BME280;47980;48.794;9.176;2023-09-19T11:41:39;98212.59;;;23.47;47.86
13767;BME280;47980;48.794;9.176;2023-09-19T11:44:33;98219.59;;;23.14;47.63
13767;BME280;47980;48.794;9.176;2023-09-19T11:47:08;98218.88;;;23.40;47.79
13767;BME280;47980;48.794;9.176;2023-09-19T11:49:41;98216.09;;;23.74;47.18
13767;BME280;47980;48.794;9.176;2023-09-19T11:52:21;98196.66;;;23.52;46.46
13767;BME280;47980;48.794;9.176;2023-09-19T11:54:55;98208.25;;;24.07;47.26
13767;BME280;47980;48.794;9.176;2023-09-19T11:57:28;98203.03;;;23.93;46.57
13767;BME280;47980;48.794;9.176;2023-09-19T12:00:02;98192.91;;;24.20;46.45
13767;BME280;47980;48.794;9.176;2023-09-19T12:02:39;98208.72;;;23.78;46.83
13767;BME280;47980;48.794;9.176;2023-09-19T12:05:13;98197.91;;;24.22;45.70
13767;BME280;47980;48.794;9.176;2023-09-19T12:07:46;98204.00;;;23.83;47.81
13767;BME280;47980;48.794;9.176;2023-09-19T12:10:18;98214.69;;;23.93;46.71
13767;BME280;47980;48.794;9.176;2023-09-19T12:12:53;98199.56;;;23.92;46.49
13767;BME280;47980;48.794;9.176;2023-09-19T12:15:27;98204.97;;;24.19;46.60
13767;BME280;47980;48.794;9.176;2023-09-19T12:18:04;98201.81;;;24.21;46.39
13767;BME280;47980;48.794;9.176;2023-09-19T12:20:42;98196.13;;;24.15;47.00
13767;BME280;47980;48.794;9.176;2023-09-19T12:23:18;98184.22;;;23.86;47.74
13767;BME280;47980;48.794;9.176;2023-09-19T12:25:50;98180.84;;;24.01;47.74
13767;BME280;47980;48.794;9.176;2023-09-19T12:28:26;98164.63;;;24.21;46.29
13767;BME280;47980;48.794;9.176;2023-09-19T12:31:06;98165.09;;;24.16;47.02
13767;BME280;47980;48.794;9.176;2023-09-19T12:33:37;98167.88;;;24.13;46.59
13767;BME280;47980;48.794;9.176;2023-09-19T12:36:19;98171.59;;;24.22;47.02
13767;BME280;47980;48.794;9.176;2023-09-19T12:38:57;98171.41;;;23.59;46.09
13767;BME280;47980;48.794;9.176;2023-09-19T12:41:29;98171.88;;;23.81;47.26
13767;BME280;47980;48.794;9.176;2023-09-19T12:44:01;98166.34;;;23.88;47.37
13767;BME280;47980;48.794;9.176;2023-09-19T12:46:37;98155.03;;;24.40;47.37
13767;BME280;47980;48.794;9.176;2023-09-19T12:49:15;98142.91;;;24.01;45.43
13767;BME280;47980;48.794;9.176;2023-09-19T12:51:49;98161.09;;;24.24;46.66
13767;BME280;47980;48.794;9.176;2023-09-19T12:54:22;98150.88;;;24.56;46.35
13767;BME280;47980;48.794;9.176;2023-09-19T12:56:55;98154.47;;;24.89;46.56
13767;BME280;47980;48.794;9.176;2023-09-19T12:59:29;98149.47;;;24.67;45.88
13767;BME280;47980;48.794;9.176;2023-09-19T13:02:03;98151.97;;;24.58;46.38
13767;BME280;47980;48.794;9.176;2023-09-19T13:04:36;98147.72;;;24.57;44.49
13767;BME280;47980;48.794;9.176;2023-09-19T13:07:39;98133.97;;;24.48;45.61
13767;BME280;47980;48.794;9.176;2023-09-19T13:10:15;98139.25;;;24.75;45.48
13767;BME280;47980;48.794;9.176;2023-09-19T13:12:46;98139.84;;;24.83;45.13
13767;BME280;47980;48.794;9.176;2023-09-19T13:15:18;98151.41;;;24.47;46.31
13767;BME280;47980;48.794;9.176;2023-09-19T13:17:50;98149.66;;;24.13;46.32
13767;BME280;47980;48.794;9.176;2023-09-19T13:20:23;98160.75;;;23.99;47.89
13767;BME280;47980;48.794;9.176;2023-09-19T13:23:03;98143.19;;;24.07;46.59
13767;BME280;47980;48.794;9.176;2023-09-19T13:25:42;98139.72;;;24.07;46.38
13767;BME280;47980;48.794;9.176;2023-09-19T13:28:15;98144.59;;;24.15;47.29
13767;BME280;47980;48.794;9.176;2023-09-19T13:30:46;98147.81;;;24.30;46.53
13767;BME280;47980;48.794;9.176;2023-09-19T13:33:18;98142.53;;;23.99;47.37
13767;BME280;47980;48.794;9.176;2023-09-19T13:35:51;98139.06;;;23.99;47.90
13767;BME280;47980;48.794;9.176;2023-09-19T13:38:22;98138.44;;;23.68;47.02
13767;BME280;47980;48.794;9.176;2023-09-19T13:40:55;98125.97;;;24.17;47.72
13767;BME280;47980;48.794;9.176;2023-09-19T13:43:27;98130.41;;;24.71;46.90
13767;BME280;47980;48.794;9.176;2023-09-19T13:45:59;98134.03;;;24.44;46.35